Nearby METAR Reports

 

KAPA - Denver/Arapahoe, Colorado, USA
Distance from station: ENE 3mi, 4km
Updated: Fri, 10/20/2017 9:53pm MDT
Partly cloudy
Partly cloudy
 Wind from SSE
Wind: SSE 13 mph , 20 km/h
Temperature: 59°F , 15°C
Dew Point: 25°F , -4°C
Humidity: 27%
Barometer: 29.59 inHg , 1002 hPa
Clouds: Partly cloudy
Visibility: 10 miles , 16 km
Cloud details: Few Clouds 12000 ft
Partly cloudy 22000 ft
2017/10/21 03:53 KAPA 210353Z 16011KT 10SM FEW120 SCT220 15/M04 A2959 RMK AO2 SLP961 T01501039 $
KBKF - Buckley Angb/Den, Colorado, USA
Distance from station: NE 14mi, 22km
Updated: Fri, 10/20/2017 9:58pm MDT
Partly cloudy
Partly cloudy
 Wind from SW
Wind: SW 7 mph , 11 km/h
Temperature: 57°F , 14°C
Dew Point: 25°F , -4°C
Humidity: 29%
Barometer: 29.57 inHg , 1001.4 hPa
Clouds: Partly cloudy
Visibility: 10 miles , 16 km
Cloud details: Few Clouds 11000 ft
Partly cloudy 22000 ft
2017/10/21 03:58 KBKF 210358Z 23006KT 10SM FEW110 SCT220 14/M04 A2957 RMK AO2A SLP947 T01431037
 
KDEN - Denver (dia), Colorado, USA
Distance from station: NNE 24mi, 39km
Updated: Fri, 10/20/2017 9:53pm MDT
Partly cloudy
Partly cloudy
 Wind from SSW
Wind: SSW 12 mph , 19 km/h
Temperature: 59°F , 15°C
Dew Point: 25°F , -4°C
Humidity: 27%
Barometer: 29.54 inHg , 1000.3 hPa
Clouds: Partly cloudy
Visibility: 10 miles , 16 km
Cloud details: Few Clouds 11000 ft
Partly cloudy 22000 ft
2017/10/21 03:53 KDEN 210353Z 21010KT 10SM FEW110 SCT220 15/M04 A2954 RMK AO2 SLP939 T01501039
KFTG - Denver F. Range, Colorado, USA
Distance from station: NE 24mi, 39km
Updated: Fri, 10/20/2017 10:30pm MDT
Clear
Clear
 Wind from SW
Wind: SW 6 mph , 9 km/h
Temperature: 63°F , 17°C
Dew Point: 27°F , -3°C
Humidity: 25%
Barometer: 29.56 inHg , 1001 hPa
Clouds: Clear
Visibility: 10 miles , 16 km
2017/10/21 04:30 KFTG 210430Z AUTO 22005KT 10SM CLR 17/M03 A2956 RMK AO2
 
KBJC - Broomfield/Jeffc, Colorado, USA
Distance from station: NNW 26mi, 42km
Updated: Fri, 10/20/2017 10:29pm MDT
Clear
Clear
 Wind from W
Wind: W 10 mph , 17 km/h
Temperature: 55°F , 13°C
Dew Point: 25°F , -4°C
Humidity: 31%
Barometer: 29.56 inHg , 1001 hPa
Clouds: Clear
Visibility: 10 miles , 16 km
2017/10/21 04:29 KBJC 210429Z AUTO 26009KT 10SM CLR 13/M04 A2956 RMK AO2
KMNH - Monument/Elbert, Colorado, USA
Distance from station: SSE 27mi, 43km
Updated: Fri, 10/20/2017 10:30pm MDT
Clear
Clear
 Wind from SSW
Wind: SSW 7 mph , 11 km/h
Temperature: 54°F , 12°C
Dew Point: 25°F , -4°C
Humidity: 33%
Barometer: 29.69 inHg , 1005.4 hPa
Clouds: Clear
Visibility: 10 miles , 16 km
2017/10/21 04:30 KMNH 210430Z AUTO 21006KT 10SM CLR 12/M04 A2969 RMK AO2
 
KEIK - Erie Muni, Colorado, USA
Distance from station: NNW 33mi, 53km
Updated: Fri, 10/20/2017 10:36pm MDT
Clear
Clear
 Wind from SW
Wind: SW 5 mph , 7 km/h
Temperature: 54°F , 12°C
Dew Point: 27°F , -3°C
Humidity: 35%
Barometer: 29.58 inHg , 1001.7 hPa
Clouds: Clear
Visibility: 10 miles , 16 km
2017/10/21 04:36 KEIK 210436Z AUTO 23004KT 10SM CLR 12/M03 A2958 RMK AO2 T01191031
KBDU - Boulder Muni, Colorado, USA
Distance from station: NNW 38mi, 60km
Updated: Fri, 10/20/2017 10:36pm MDT
Clear
Clear
 Wind from SW
Wind: SW 6 mph , 9 km/h
Temperature: 59°F , 15°C
Dew Point: 25°F , -4°C
Humidity: 27%
Barometer: 29.53 inHg , 1000 hPa
Clouds: Clear
Visibility: 10 miles , 16 km
2017/10/21 04:36 KBDU 210436Z AUTO 23005KT 10SM CLR 15/M04 A2953 RMK AO2
 
KAFF - Usaf Academy/Cos, Colorado, USA
Distance from station: S 41mi, 66km
Updated: Fri, 10/20/2017 9:58pm MDT
Clear
Clear
 Wind from calm
Wind: Calm
Temperature: 61°F , 16°C
Dew Point: 23°F , -5°C
Humidity: 23%
Barometer: 29.64 inHg , 1003.7 hPa
Clouds: Clear
Visibility: 10 miles , 16 km
2017/10/21 03:58 KAFF 210358Z AUTO 00000KT 10SM CLR 16/M05 A2964 RMK AO2 SLP954 T01591052
KLMO - Longmont/Vbrand, Colorado, USA
Distance from station: NNW 45mi, 72km
Updated: Fri, 10/20/2017 10:35pm MDT
Clear
Clear
 Wind from WSW
Wind: WSW 3 mph , 6 km/h
Temperature: 52°F , 11°C
Dew Point: 30°F , -1°C
Humidity: 44%
Barometer: 29.53 inHg , 1000 hPa
Clouds: Clear
Visibility: 10 miles , 16 km
2017/10/21 04:35 KLMO 210435Z AUTO 25003KT 10SM CLR 11/M01 A2953 RMK AO2 T01141009
 
KFLY - Co Spngs Meadow, Colorado, USA
Distance from station: SSE 45mi, 73km
Updated: Fri, 10/20/2017 10:35pm MDT
Clear
Clear
 Wind from WSW
Wind: WSW 5 mph , 7 km/h
Temperature: 55°F , 13°C
Dew Point: 23°F , -5°C
Humidity: 28%
Barometer: 29.68 inHg , 1005.1 hPa
Clouds: Clear
Visibility: 10 miles , 16 km
2017/10/21 04:35 KFLY 210435Z AUTO 25004KT 10SM CLR 13/M05 A2968 RMK AO2 T01261055
K4BM - Wilkerson Pass, Colorado, USA
Distance from station: SW 48mi, 77km
Updated: Fri, 10/20/2017 10:30pm MDT
Partly cloudy
Partly cloudy
 Wind from SSW
Wind: SSW 8 mph , 13 km/h, Gust: 23 mph , 37 km/h
Temperature: 37°F , 3°C
Wind Chill: 31°F , -1°C
Dew Point: 19°F , -7°C
Humidity: 48%
Barometer: 29.91 inHg , 1012.9 hPa
Clouds: Partly cloudy
Visibility: 10 miles , 16 km
Cloud details: Partly cloudy 11000 ft
2017/10/21 04:30 K4BM 210430Z AUTO 20007G20KT 120V270 10SM SCT110 03/M07 A2991 RMK AO2
 
K0CO - Berthoud Pass, Colorado, USA
Distance from station: WNW 49mi, 79km
Updated: Fri, 10/20/2017 10:30pm MDT
Light snow, Mostly cloudy
Light snow, Mostly cloudy
 Wind from WNW
Wind: WNW 28 mph , 44 km/h, Gust: 33 mph , 54 km/h
Temperature: 27°F , -3°C
Wind Chill: 11°F , -12°C
Dew Point: 18°F , -8°C
Humidity: 69%
Barometer: 29.90 inHg , 1012.5 hPa
Summary: Light Snow
Clouds: Mostly cloudy
Visibility: 10 miles , 16 km
Cloud details: Partly cloudy 4400 ft
Mostly cloudy 6000 ft
Mostly cloudy 6500 ft
2017/10/21 04:30 K0CO 210430Z AUTO 30024G29KT 10SM -SN SCT044 BKN060 BKN065 M03/M08 A2990 RMK AO2